Time;durP1;ratioP1;P1;durP2;ratioP2;P2;SDS_P1;SDS_P2;PMS_P1;PMS_P2;Temp;Humidity;BMP_temperature;BMP_pressure;BME280_temperature;BME280_humidity;BME280_pressure;Samples;Min_cycle;Max_cycle;Signal;HPM_P1;HPM_P2
2024/04/03 00:01:09;;;;;;;2.75;0.90;;;10.20;99.90;;;;;;5010240;28;20059;-68
2024/04/03 00:03:35;;;;;;;2.80;1.40;;;10.20;99.90;;;;;;5020780;28;20041;-68
2024/04/03 00:06:01;;;;;;;2.75;0.93;;;10.10;99.90;;;;;;5026830;28;20098;-68
2024/04/03 00:08:27;;;;;;;3.58;0.75;;;10.20;99.90;;;;;;5021808;28;20057;-68
2024/04/03 00:10:52;;;;;;;4.85;0.85;;;10.20;99.90;;;;;;5035954;28;20304;-68
2024/04/03 00:13:18;;;;;;;2.95;0.88;;;10.20;99.90;;;;;;5025403;28;20048;-68
2024/04/03 00:15:44;;;;;;;2.50;0.65;;;10.20;99.90;;;;;;5003216;28;20092;-68
2024/04/03 00:18:10;;;;;;;2.05;0.70;;;10.20;99.90;;;;;;5024903;28;20049;-68
2024/04/03 00:20:37;;;;;;;5.13;0.90;;;10.20;99.90;;;;;;5016597;28;20060;-68
2024/04/03 00:23:03;;;;;;;1.50;0.70;;;10.20;99.90;;;;;;5008699;28;20076;-68
2024/04/03 00:25:28;;;;;;;2.92;0.47;;;10.20;99.90;;;;;;5022112;28;20499;-68
2024/04/03 00:27:54;;;;;;;4.88;0.77;;;10.20;99.90;;;;;;5012759;28;20145;-68
2024/04/03 00:30:20;;;;;;;2.72;0.90;;;10.20;99.90;;;;;;5017841;28;20412;-68
2024/04/03 00:32:46;;;;;;;3.17;0.60;;;10.30;99.90;;;;;;5021405;28;20475;-68
2024/04/03 00:35:12;;;;;;;2.05;0.65;;;10.30;99.90;;;;;;5018598;28;20084;-67
2024/04/03 00:37:40;;;;;;;2.83;0.57;;;10.30;99.90;;;;;;5016523;28;20053;-69
2024/04/03 00:40:06;;;;;;;0.55;0.40;;;10.30;99.90;;;;;;5036234;28;20060;-69
2024/04/03 00:42:32;;;;;;;1.88;0.60;;;10.30;99.90;;;;;;5006146;28;20053;-68
2024/04/03 00:44:58;;;;;;;2.67;0.75;;;10.30;99.90;;;;;;5018057;28;20056;-69
2024/04/03 00:47:24;;;;;;;1.75;0.52;;;10.30;99.90;;;;;;5026552;28;20724;-68
2024/04/03 00:49:50;;;;;;;9.65;1.58;;;10.30;99.90;;;;;;5020985;28;20065;-69
2024/04/03 00:52:17;;;;;;;1.80;0.38;;;10.30;99.90;;;;;;5002952;28;20057;-69
2024/04/03 00:54:44;;;;;;;3.95;0.75;;;10.30;99.90;;;;;;5018118;28;20038;-68
2024/04/03 00:57:11;;;;;;;3.45;0.88;;;10.30;99.90;;;;;;5014412;28;20058;-68
2024/04/03 00:59:37;;;;;;;3.75;0.60;;;10.30;99.90;;;;;;5003465;28;20441;-68
2024/04/03 01:02:03;;;;;;;6.90;1.00;;;10.30;99.90;;;;;;5012648;28;20932;-69
2024/04/03 01:04:29;;;;;;;3.95;0.57;;;10.30;99.90;;;;;;5019397;28;20057;-69
2024/04/03 01:06:55;;;;;;;2.97;0.80;;;10.40;99.90;;;;;;5019427;28;20768;-68
2024/04/03 01:09:21;;;;;;;4.53;0.93;;;10.40;99.90;;;;;;5023342;28;20409;-69
2024/04/03 01:11:47;;;;;;;1.67;0.50;;;10.40;99.90;;;;;;5019757;28;20480;-69
2024/04/03 01:14:13;;;;;;;4.82;0.70;;;10.40;99.90;;;;;;5011480;28;20501;-69
2024/04/03 01:16:43;;;;;;;2.45;0.50;;;10.40;99.90;;;;;;5017215;28;20045;-69
2024/04/03 01:19:09;;;;;;;1.05;0.43;;;10.40;99.90;;;;;;5016914;28;20061;-69
2024/04/03 01:21:36;;;;;;;2.40;0.70;;;10.40;99.90;;;;;;5005017;28;20038;-69
2024/04/03 01:24:02;;;;;;;1.65;0.47;;;10.40;99.90;;;;;;5021554;28;20053;-69
2024/04/03 01:26:29;;;;;;;4.90;0.85;;;10.40;99.90;;;;;;5025491;28;20061;-69
2024/04/03 01:28:56;;;;;;;2.65;0.98;;;10.40;99.90;;;;;;5022000;28;20061;-69
2024/04/03 01:31:22;;;;;;;1.38;0.60;;;10.40;99.90;;;;;;5017934;28;20053;-68
2024/04/03 01:33:47;;;;;;;3.65;0.60;;;10.40;99.90;;;;;;5026856;28;20420;-69
2024/04/03 01:36:13;;;;;;;2.33;0.50;;;10.40;99.90;;;;;;5001921;28;20083;-69
2024/04/03 01:38:39;;;;;;;3.35;0.90;;;10.40;99.90;;;;;;5009165;28;20413;-68
2024/04/03 01:41:05;;;;;;;2.35;0.50;;;10.40;99.90;;;;;;5023247;28;20045;-68
2024/04/03 01:43:31;;;;;;;1.15;0.55;;;10.40;99.90;;;;;;5006917;28;20094;-69
2024/04/03 01:45:57;;;;;;;1.10;0.50;;;10.40;99.90;;;;;;5025100;28;20135;-68
2024/04/03 01:48:23;;;;;;;1.90;0.40;;;10.40;99.90;;;;;;4988313;28;20061;-68
2024/04/03 01:50:49;;;;;;;1.08;0.57;;;10.40;99.90;;;;;;5007370;28;20056;-68
2024/04/03 01:53:15;;;;;;;0.40;0.40;;;10.40;99.90;;;;;;5027859;28;20057;-68
2024/04/03 01:55:41;;;;;;;2.45;0.73;;;10.50;99.90;;;;;;5009774;28;20415;-68
2024/04/03 01:58:07;;;;;;;1.65;0.60;;;10.40;99.90;;;;;;5033225;28;20065;-69
2024/04/03 02:00:33;;;;;;;2.10;0.43;;;10.40;99.90;;;;;;5022375;28;20052;-69
2024/04/03 02:02:58;;;;;;;0.80;0.43;;;10.50;99.90;;;;;;5019631;28;20049;-68
2024/04/03 02:05:24;;;;;;;2.90;0.65;;;10.40;99.90;;;;;;5023425;28;20055;-69
2024/04/03 02:07:50;;;;;;;4.50;0.60;;;10.50;99.90;;;;;;5021163;28;20080;-68
2024/04/03 02:10:16;;;;;;;2.78;0.65;;;10.50;99.90;;;;;;5019568;28;20057;-68
2024/04/03 02:12:42;;;;;;;0.52;0.30;;;10.50;99.90;;;;;;5005332;28;20495;-68
2024/04/03 02:15:08;;;;;;;1.95;0.60;;;10.50;99.90;;;;;;5020087;28;20500;-68
2024/04/03 02:17:34;;;;;;;0.63;0.50;;;10.50;99.90;;;;;;5016926;28;20458;-68
2024/04/03 02:20:00;;;;;;;3.00;0.50;;;10.50;99.90;;;;;;5021975;28;20064;-68
2024/04/03 02:22:26;;;;;;;2.20;0.40;;;10.50;99.90;;;;;;5007523;28;20120;-68
2024/04/03 02:24:52;;;;;;;1.02;0.50;;;10.50;99.90;;;;;;5002226;28;20045;-68
2024/04/03 02:27:17;;;;;;;1.77;0.50;;;10.50;99.90;;;;;;5024997;28;20049;-68
2024/04/03 02:29:43;;;;;;;1.58;0.85;;;10.60;99.90;;;;;;5007547;28;20089;-68
2024/04/03 02:32:09;;;;;;;1.23;0.52;;;10.60;99.90;;;;;;4994689;28;20549;-67
2024/04/03 02:34:35;;;;;;;2.22;0.80;;;10.60;99.90;;;;;;4998064;28;20120;-68
2024/04/03 02:37:01;;;;;;;2.88;0.50;;;10.60;99.90;;;;;;5004470;28;20073;-68
2024/04/03 02:39:27;;;;;;;4.45;1.00;;;10.60;99.90;;;;;;5001924;28;20501;-68
2024/04/03 02:41:53;;;;;;;11.90;1.75;;;10.60;99.90;;;;;;5002726;28;20060;-67
2024/04/03 02:44:18;;;;;;;3.65;0.85;;;10.60;99.90;;;;;;5001967;28;20060;-67
2024/04/03 02:46:44;;;;;;;1.88;0.95;;;10.60;99.90;;;;;;5003804;28;20053;-68
2024/04/03 02:49:12;;;;;;;7.80;1.52;;;10.60;99.90;;;;;;4998559;28;20802;-68
2024/04/03 02:51:37;;;;;;;1.75;0.88;;;10.50;99.90;;;;;;4985049;28;20054;-68
2024/04/03 02:54:03;;;;;;;5.43;1.20;;;10.60;99.90;;;;;;5000118;28;20046;-68
2024/04/03 02:56:29;;;;;;;8.93;1.40;;;10.60;99.90;;;;;;5000593;28;20058;-68
2024/04/03 02:58:55;;;;;;;3.30;1.38;;;10.60;99.90;;;;;;5002780;28;20432;-68
2024/04/03 03:01:21;;;;;;;6.45;1.00;;;10.60;99.90;;;;;;4982127;28;20050;-67
2024/04/03 03:03:46;;;;;;;3.22;1.08;;;10.60;99.90;;;;;;5000113;28;22252;-67
2024/04/03 03:06:12;;;;;;;3.58;1.25;;;10.60;99.90;;;;;;5012891;28;20124;-67
2024/04/03 03:08:38;;;;;;;8.38;1.13;;;10.60;99.90;;;;;;5001354;28;20500;-68
2024/04/03 03:11:04;;;;;;;2.95;0.60;;;10.70;99.90;;;;;;4996671;28;20133;-67
2024/04/03 03:13:30;;;;;;;2.20;0.68;;;10.70;99.90;;;;;;4998470;28;20057;-69
2024/04/03 03:16:02;;;;;;;1.17;0.63;;;10.70;99.90;;;;;;4998764;28;20054;-68
2024/04/03 03:18:28;;;;;;;3.15;0.70;;;10.70;99.90;;;;;;4987013;28;20676;-68
2024/04/03 03:20:54;;;;;;;4.68;0.77;;;10.70;99.90;;;;;;5001108;28;20152;-68
2024/04/03 03:23:20;;;;;;;1.75;0.52;;;10.70;99.90;;;;;;5000826;28;20578;-68
2024/04/03 03:25:47;;;;;;;3.67;0.70;;;10.70;99.90;;;;;;4998083;28;20108;-68
2024/04/03 03:28:13;;;;;;;6.50;0.75;;;10.70;99.90;;;;;;4999620;28;20072;-68
2024/04/03 03:30:39;;;;;;;1.90;0.68;;;10.70;99.90;;;;;;5007819;28;20069;-67
2024/04/03 03:33:05;;;;;;;8.88;1.65;;;10.80;99.90;;;;;;5005924;28;20041;-68
2024/04/03 03:35:31;;;;;;;1.70;0.60;;;10.80;99.90;;;;;;5003205;28;20108;-68
2024/04/03 03:37:57;;;;;;;7.13;0.70;;;10.80;99.90;;;;;;4981680;28;21598;-68
2024/04/03 03:40:24;;;;;;;5.35;1.00;;;10.80;99.90;;;;;;5000374;28;20050;-68
2024/04/03 03:42:49;;;;;;;2.35;0.77;;;10.80;99.90;;;;;;4969934;28;20346;-68
2024/04/03 03:45:19;;;;;;;5.45;0.70;;;10.90;99.90;;;;;;5002665;28;20054;-68
2024/04/03 03:47:46;;;;;;;7.47;1.02;;;10.80;99.90;;;;;;4995838;28;20097;-68
2024/04/03 03:52:56;;;;;;;8.77;0.90;;;10.90;99.90;;;;;;4999631;28;20042;-67
2024/04/03 03:55:22;;;;;;;5.43;0.80;;;10.90;99.90;;;;;;5003628;28;20156;-68
2024/04/03 03:57:47;;;;;;;5.47;0.98;;;10.90;99.90;;;;;;5004152;28;20091;-68
2024/04/03 04:00:13;;;;;;;7.60;1.65;;;10.90;99.90;;;;;;4988871;28;20529;-68
2024/04/03 04:02:39;;;;;;;5.50;1.05;;;10.90;99.90;;;;;;5000344;28;20305;-68
2024/04/03 04:05:05;;;;;;;4.32;0.90;;;10.80;99.90;;;;;;5008356;28;20088;-68
2024/04/03 04:07:32;;;;;;;4.10;1.05;;;10.80;99.90;;;;;;5001855;28;20125;-68
2024/04/03 04:09:58;;;;;;;2.25;0.70;;;10.80;99.90;;;;;;5006357;28;20685;-70
2024/04/03 04:12:24;;;;;;;4.35;1.15;;;10.80;99.90;;;;;;5006789;28;20124;-68
2024/04/03 04:14:51;;;;;;;6.30;0.95;;;10.90;99.90;;;;;;5005628;28;20062;-69
2024/04/03 04:17:17;;;;;;;9.23;1.02;;;10.90;99.90;;;;;;4974410;28;20485;-68
2024/04/03 04:19:42;;;;;;;3.80;1.55;;;10.90;99.90;;;;;;5007778;28;20064;-68
2024/04/03 04:22:08;;;;;;;4.43;1.08;;;10.90;99.90;;;;;;5016948;28;20046;-69
2024/04/03 04:24:36;;;;;;;2.35;0.90;;;10.90;99.90;;;;;;5004067;28;20801;-70
2024/04/03 04:27:04;;;;;;;3.47;0.52;;;10.90;99.90;;;;;;4981618;28;20406;-68
2024/04/03 04:29:31;;;;;;;2.40;0.65;;;11.00;99.90;;;;;;4999526;28;20062;-69
2024/04/03 04:31:58;;;;;;;1.58;0.73;;;11.00;99.90;;;;;;4997020;28;20559;-69
2024/04/03 04:34:27;;;;;;;4.75;1.02;;;11.00;99.90;;;;;;5000727;28;20104;-68
2024/04/03 04:36:53;;;;;;;1.85;0.57;;;11.00;99.90;;;;;;4994968;28;20050;-68
2024/04/03 04:39:19;;;;;;;2.85;0.70;;;11.00;99.90;;;;;;5002620;28;20060;-69
2024/04/03 04:41:52;;;;;;;4.32;0.73;;;11.10;99.90;;;;;;5000937;28;20057;-69
2024/04/03 04:44:18;;;;;;;2.25;0.70;;;11.00;99.90;;;;;;4981430;28;20057;-68
2024/04/03 04:46:51;;;;;;;6.32;2.20;;;11.10;99.90;;;;;;5000025;28;20076;-68
2024/04/03 04:49:17;;;;;;;6.07;1.08;;;11.00;99.90;;;;;;4996867;28;20061;-68
2024/04/03 04:51:43;;;;;;;6.07;1.30;;;11.00;99.90;;;;;;5003496;28;20061;-68
2024/04/03 04:54:11;;;;;;;3.75;1.23;;;11.00;99.90;;;;;;4985359;28;20042;-70
2024/04/03 04:56:37;;;;;;;5.32;1.40;;;11.00;99.90;;;;;;5003361;28;20064;-69
2024/04/03 04:59:03;;;;;;;8.10;1.38;;;11.00;99.90;;;;;;5000166;28;20524;-68
2024/04/03 05:01:29;;;;;;;2.60;0.80;;;11.00;99.90;;;;;;4982849;28;20054;-69
2024/04/03 05:03:54;;;;;;;6.80;1.30;;;11.10;99.90;;;;;;4996506;28;20069;-70
2024/04/03 05:06:22;;;;;;;11.23;2.25;;;11.10;99.90;;;;;;4998483;28;20736;-70
2024/04/03 05:08:47;;;;;;;10.80;1.33;;;11.10;99.90;;;;;;4977780;28;20104;-70
2024/04/03 05:11:13;;;;;;;14.85;3.45;;;11.10;99.90;;;;;;4986700;28;20137;-70
2024/04/03 05:13:39;;;;;;;10.27;1.50;;;11.10;99.90;;;;;;4989709;28;20045;-69
2024/04/03 05:16:12;;;;;;;7.63;1.63;;;11.10;99.90;;;;;;4999620;28;20057;-69
2024/04/03 05:18:38;;;;;;;11.18;1.55;;;11.20;99.90;;;;;;4983882;28;20738;-69
2024/04/03 05:21:05;;;;;;;14.32;2.42;;;11.20;99.90;;;;;;5000172;28;20421;-70
2024/04/03 05:23:30;;;;;;;7.78;1.90;;;11.20;99.90;;;;;;4999421;28;20093;-69
2024/04/03 05:26:01;;;;;;;14.90;1.65;;;11.20;99.90;;;;;;4986162;28;20050;-69
2024/04/03 05:28:27;;;;;;;6.03;1.95;;;11.20;99.90;;;;;;4984171;28;20460;-68
2024/04/03 05:30:53;;;;;;;7.43;2.00;;;11.20;99.90;;;;;;5016455;28;20046;-68
2024/04/03 05:33:19;;;;;;;9.05;1.30;;;11.20;99.90;;;;;;5002738;28;20057;-69
2024/04/03 05:35:58;;;;;;;10.15;1.23;;;11.20;99.90;;;;;;5009560;28;20049;-69
2024/04/03 05:38:24;;;;;;;1.92;0.90;;;11.20;99.90;;;;;;5020578;28;20054;-69
2024/04/03 05:40:51;;;;;;;7.32;2.20;;;11.20;99.90;;;;;;4999129;28;20825;-68
2024/04/03 05:43:17;;;;;;;4.13;1.20;;;11.20;99.90;;;;;;5001955;28;20053;-69
2024/04/03 05:45:43;;;;;;;2.53;1.13;;;11.20;99.90;;;;;;5001567;28;20053;-69
2024/04/03 05:48:08;;;;;;;5.75;0.80;;;11.20;99.90;;;;;;5017940;28;20131;-69
2024/04/03 05:50:35;;;;;;;8.38;1.15;;;11.30;99.90;;;;;;5013600;28;20637;-70
2024/04/03 05:53:01;;;;;;;5.68;1.30;;;11.30;99.90;;;;;;5015862;28;20065;-69
2024/04/03 05:55:27;;;;;;;4.63;0.75;;;11.30;99.90;;;;;;5018305;28;20054;-69
2024/04/03 05:57:53;;;;;;;2.78;0.85;;;11.30;99.90;;;;;;5000798;28;20451;-69
2024/04/03 06:00:18;;;;;;;7.65;0.82;;;11.40;99.90;;;;;;5014595;28;20042;-69
2024/04/03 06:02:44;;;;;;;3.85;0.98;;;11.40;99.90;;;;;;5002556;28;20128;-69
2024/04/03 06:05:10;;;;;;;7.03;0.82;;;11.40;99.90;;;;;;5015554;28;20061;-70
2024/04/03 06:07:36;;;;;;;6.22;0.95;;;11.40;99.90;;;;;;5012959;28;20496;-71
2024/04/03 06:10:03;;;;;;;7.78;1.30;;;11.50;99.90;;;;;;5010321;28;20052;-70
2024/04/03 06:12:30;;;;;;;8.00;1.10;;;11.50;99.90;;;;;;5002109;28;20061;-70
2024/04/03 06:14:56;;;;;;;4.85;1.17;;;11.50;99.90;;;;;;5002904;28;20054;-70
2024/04/03 06:17:22;;;;;;;6.82;1.95;;;11.50;99.90;;;;;;5016987;28;21288;-70
2024/04/03 06:19:48;;;;;;;7.88;1.10;;;11.40;99.90;;;;;;5019927;28;20057;-70
2024/04/03 06:22:14;;;;;;;4.88;0.77;;;11.50;99.90;;;;;;5016678;28;20056;-70
2024/04/03 06:24:40;;;;;;;5.97;2.30;;;11.60;99.90;;;;;;5021464;28;20049;-70
2024/04/03 06:27:05;;;;;;;3.03;0.90;;;11.60;99.90;;;;;;5010713;28;20065;-70
2024/04/03 06:29:31;;;;;;;9.93;1.17;;;11.50;99.90;;;;;;5010738;28;20103;-70
2024/04/03 06:31:58;;;;;;;37.13;3.72;;;11.60;99.90;;;;;;4989220;28;20580;-70
2024/04/03 06:34:24;;;;;;;8.00;1.05;;;11.50;99.90;;;;;;5000154;28;20050;-72
2024/04/03 06:36:50;;;;;;;4.57;1.20;;;11.60;99.90;;;;;;4983194;28;20576;-69
2024/04/03 06:39:16;;;;;;;4.32;1.27;;;11.60;99.90;;;;;;4997401;28;20391;-69
2024/04/03 06:41:42;;;;;;;4.35;1.30;;;11.50;99.90;;;;;;4999360;28;20065;-69
2024/04/03 06:44:07;;;;;;;3.38;1.30;;;11.60;99.90;;;;;;4996483;28;20073;-69
2024/04/03 06:46:33;;;;;;;2.08;0.80;;;11.60;99.90;;;;;;4997382;28;20054;-69
2024/04/03 06:48:59;;;;;;;1.27;0.95;;;11.60;99.90;;;;;;4995822;28;20054;-70
2024/04/03 06:51:25;;;;;;;1.08;0.47;;;11.60;99.90;;;;;;4997814;28;20045;-69
2024/04/03 06:53:51;;;;;;;5.65;0.73;;;11.60;99.90;;;;;;4996403;28;20045;-69
2024/04/03 06:56:17;;;;;;;1.48;0.73;;;11.70;99.90;;;;;;4997350;28;20710;-69
2024/04/03 06:58:43;;;;;;;3.05;0.90;;;11.70;99.90;;;;;;5001229;28;20061;-69
2024/04/03 07:01:11;;;;;;;1.58;0.60;;;11.60;99.90;;;;;;4964726;28;20111;-69
2024/04/03 07:03:37;;;;;;;3.78;0.77;;;11.70;99.90;;;;;;4991636;28;20053;-69
2024/04/03 07:06:03;;;;;;;6.53;0.85;;;11.60;99.90;;;;;;4988258;28;20050;-70
2024/04/03 07:08:28;;;;;;;4.57;0.73;;;11.60;99.90;;;;;;4997274;28;20604;-69
2024/04/03 07:10:54;;;;;;;8.35;1.33;;;11.70;99.90;;;;;;4996219;28;20050;-70
2024/04/03 07:13:24;;;;;;;4.85;2.17;;;11.70;99.90;;;;;;4996181;28;20089;-69
2024/04/03 07:15:50;;;;;;;6.78;1.40;;;11.70;99.90;;;;;;5001709;28;20046;-69
2024/04/03 07:18:16;;;;;;;4.47;1.10;;;11.80;99.90;;;;;;4968321;28;20070;-69
2024/04/03 07:20:51;;;;;;;5.47;1.02;;;11.90;99.90;;;;;;5001547;28;20056;-71
2024/04/03 07:23:16;;;;;;;9.30;2.10;;;11.90;99.90;;;;;;4998994;28;20418;-72
2024/04/03 07:25:42;;;;;;;12.70;1.40;;;11.90;99.90;;;;;;4998643;28;20054;-71
2024/04/03 07:28:11;;;;;;;4.90;1.20;;;12.00;99.90;;;;;;4986197;28;20057;-71
2024/04/03 07:30:39;;;;;;;7.50;1.20;;;11.90;99.90;;;;;;5001777;28;20050;-72
2024/04/03 07:33:05;;;;;;;7.28;1.60;;;12.00;99.90;;;;;;5003023;28;20046;-72
2024/04/03 07:35:31;;;;;;;4.88;1.13;;;12.00;99.90;;;;;;5003421;28;20089;-71
2024/04/03 07:37:57;;;;;;;3.42;1.17;;;12.00;99.90;;;;;;5003789;28;20146;-72
2024/04/03 07:40:23;;;;;;;7.63;1.05;;;12.00;99.90;;;;;;5000186;28;20492;-72
2024/04/03 07:42:49;;;;;;;4.97;0.90;;;12.00;99.90;;;;;;5000604;28;20092;-73
2024/04/03 07:45:14;;;;;;;7.22;1.98;;;12.10;99.90;;;;;;4996863;28;20064;-71
2024/04/03 07:47:41;;;;;;;4.63;0.70;;;12.10;99.90;;;;;;5001813;28;20054;-70
2024/04/03 07:50:07;;;;;;;4.28;0.80;;;12.10;99.90;;;;;;4993805;28;20054;-72
2024/04/03 07:52:39;;;;;;;3.63;0.82;;;12.20;99.90;;;;;;5001467;28;20042;-70
2024/04/03 07:55:06;;;;;;;6.22;0.77;;;12.20;99.90;;;;;;4968839;28;20050;-72
2024/04/03 07:57:33;;;;;;;4.82;0.88;;;12.30;99.90;;;;;;4996976;28;20778;-72
2024/04/03 07:59:59;;;;;;;1.65;0.55;;;12.30;99.90;;;;;;4999740;28;20520;-72
2024/04/03 08:02:25;;;;;;;2.30;0.45;;;12.40;99.90;;;;;;5004188;28;20042;-71
2024/04/03 08:04:51;;;;;;;8.07;1.13;;;12.30;99.90;;;;;;4996343;28;20108;-69
2024/04/03 08:07:16;;;;;;;1.80;0.47;;;12.20;99.90;;;;;;5001982;28;20693;-70
2024/04/03 08:09:42;;;;;;;3.28;0.77;;;12.00;99.90;;;;;;5001035;28;20428;-70
2024/04/03 08:12:08;;;;;;;1.63;0.50;;;12.00;99.90;;;;;;5001515;28;20090;-70
2024/04/03 08:14:34;;;;;;;3.97;0.90;;;12.00;99.90;;;;;;4980255;28;20148;-70
2024/04/03 08:17:00;;;;;;;3.97;0.70;;;12.00;99.90;;;;;;4997116;28;20149;-69
2024/04/03 08:19:25;;;;;;;4.47;1.40;;;12.00;99.90;;;;;;5000516;28;20065;-70
2024/04/03 08:21:51;;;;;;;4.55;1.00;;;12.00;99.90;;;;;;5002459;28;20050;-71
2024/04/03 08:24:17;;;;;;;9.75;3.60;;;12.00;99.90;;;;;;4997250;28;20053;-71
2024/04/03 08:26:43;;;;;;;4.43;0.80;;;12.10;99.90;;;;;;4998269;28;20060;-71
2024/04/03 08:29:09;;;;;;;5.93;1.23;;;12.10;99.90;;;;;;4984697;28;20070;-72
2024/04/03 08:31:35;;;;;;;7.68;1.05;;;12.20;99.90;;;;;;4981705;28;20042;-71
2024/04/03 08:34:01;;;;;;;6.50;1.20;;;12.10;99.90;;;;;;4984286;28;20064;-71
2024/04/03 08:36:27;;;;;;;15.27;2.00;;;12.20;99.90;;;;;;4996824;28;20057;-75
2024/04/03 08:38:52;;;;;;;9.68;0.95;;;12.20;99.90;;;;;;5001193;28;20061;-72
2024/04/03 08:41:19;;;;;;;3.90;0.63;;;12.30;99.90;;;;;;4981307;28;20050;-70
2024/04/03 08:43:47;;;;;;;6.22;1.30;;;12.30;99.90;;;;;;4998424;28;20053;-70
2024/04/03 08:46:13;;;;;;;5.32;1.00;;;12.30;99.90;;;;;;4982334;28;20058;-69
2024/04/03 08:48:39;;;;;;;6.80;1.30;;;12.30;99.90;;;;;;4984167;28;20946;-68
2024/04/03 08:51:05;;;;;;;7.50;1.25;;;12.40;99.90;;;;;;5001462;28;20062;-69
2024/04/03 08:53:31;;;;;;;6.28;2.15;;;12.40;99.90;;;;;;4999692;28;20108;-70
2024/04/03 08:55:58;;;;;;;6.05;1.00;;;12.30;99.90;;;;;;5001367;28;20728;-69
2024/04/03 08:58:25;;;;;;;6.25;1.20;;;12.50;99.90;;;;;;5000013;28;20053;-69
2024/04/03 09:00:51;;;;;;;4.47;1.10;;;12.60;99.90;;;;;;4986592;28;20050;-69
2024/04/03 09:03:19;;;;;;;5.80;1.15;;;12.60;99.90;;;;;;4975566;28;20454;-69
2024/04/03 09:05:46;;;;;;;5.38;1.50;;;12.60;99.90;;;;;;5003922;28;20060;-69
2024/04/03 09:08:12;;;;;;;2.45;0.90;;;12.70;99.90;;;;;;4960373;28;20062;-69
2024/04/03 09:10:56;;;;;;;6.18;1.30;;;12.70;99.90;;;;;;4995775;28;20113;-70
2024/04/03 09:13:22;;;;;;;5.63;0.95;;;12.70;99.90;;;;;;4997811;28;20587;-70
2024/04/03 09:15:52;;;;;;;9.25;1.33;;;12.70;99.90;;;;;;5004712;28;20485;-70
2024/04/03 09:18:18;;;;;;;8.80;1.48;;;12.80;99.90;;;;;;4983124;28;20657;-70
2024/04/03 09:20:46;;;;;;;7.35;1.55;;;12.90;99.90;;;;;;4988611;28;20054;-70
2024/04/03 09:23:12;;;;;;;7.55;1.30;;;13.00;99.90;;;;;;5002555;28;20497;-70
2024/04/03 09:25:38;;;;;;;8.95;1.48;;;13.10;99.90;;;;;;5005421;28;20053;-69
2024/04/03 09:28:08;;;;;;;7.22;1.92;;;13.00;99.90;;;;;;4982012;28;20512;-70
2024/04/03 09:30:39;;;;;;;7.50;2.10;;;12.90;99.90;;;;;;5003160;28;20062;-70
2024/04/03 09:33:05;;;;;;;10.82;1.90;;;12.90;99.90;;;;;;5000020;28;20174;-71
2024/04/03 09:35:35;;;;;;;13.07;2.40;;;12.80;99.90;;;;;;4996104;28;20099;-70
2024/04/03 09:38:02;;;;;;;11.00;1.35;;;12.70;99.90;;;;;;4973825;28;20049;-70
2024/04/03 09:40:29;;;;;;;8.85;1.40;;;12.80;99.90;;;;;;4982677;28;20704;-70
2024/04/03 09:43:02;;;;;;;10.43;0.95;;;12.70;99.90;;;;;;5002523;28;20069;-70
2024/04/03 09:45:29;;;;;;;3.45;0.98;;;12.70;99.90;;;;;;5005197;28;20045;-69
2024/04/03 09:47:59;;;;;;;9.13;1.48;;;12.70;99.90;;;;;;5003180;28;20141;-69
2024/04/03 09:50:36;;;;;;;4.38;1.38;;;12.80;99.90;;;;;;4987163;28;20054;-70
2024/04/03 09:53:06;;;;;;;6.60;1.23;;;12.90;99.90;;;;;;4989302;28;20046;-71
2024/04/03 09:55:32;;;;;;;5.22;1.05;;;13.00;99.90;;;;;;4989773;28;20485;-71
2024/04/03 09:57:59;;;;;;;2.33;1.30;;;13.00;99.90;;;;;;5003168;28;20088;-71
2024/04/03 10:00:25;;;;;;;2.33;0.60;;;13.10;99.90;;;;;;4995899;28;20057;-72
2024/04/03 10:02:51;;;;;;;4.28;0.82;;;13.20;99.90;;;;;;5005143;28;20050;-71
2024/04/03 10:05:21;;;;;;;6.03;1.05;;;13.30;99.90;;;;;;4967456;28;20052;-71
2024/04/03 10:08:10;;;;;;;4.80;0.65;;;13.40;99.90;;;;;;5000563;28;20058;-71
2024/04/03 10:10:42;;;;;;;4.38;0.82;;;13.50;99.90;;;;;;5004581;28;20484;-70
2024/04/03 10:13:27;;;;;;;3.05;0.52;;;13.50;99.90;;;;;;4973108;28;20065;-71
2024/04/03 10:16:03;;;;;;;5.80;0.85;;;13.30;99.90;;;;;;4983126;28;20054;-71
2024/04/03 10:18:30;;;;;;;3.45;0.93;;;13.30;99.90;;;;;;4994578;28;20472;-71
2024/04/03 10:20:57;;;;;;;4.78;0.70;;;13.30;99.90;;;;;;4987283;28;20057;-71
2024/04/03 10:23:24;;;;;;;5.15;1.00;;;13.30;99.90;;;;;;5005722;28;20050;-71
2024/04/03 10:25:50;;;;;;;5.03;0.80;;;13.30;99.90;;;;;;4977521;28;20050;-71
2024/04/03 10:28:16;;;;;;;6.35;0.80;;;13.30;99.90;;;;;;4981916;28;20056;-70
2024/04/03 10:30:42;;;;;;;6.38;1.02;;;13.30;99.90;;;;;;5000591;28;20057;-69
2024/04/03 10:33:08;;;;;;;8.50;1.25;;;13.20;99.90;;;;;;4996305;28;20084;-69
2024/04/03 10:35:34;;;;;;;5.30;1.40;;;13.20;99.90;;;;;;4999379;28;20065;-71
2024/04/03 10:38:01;;;;;;;2.85;0.82;;;13.10;99.90;;;;;;5005161;28;20516;-69
2024/04/03 10:40:28;;;;;;;7.97;1.08;;;13.10;99.90;;;;;;5007938;28;20050;-70
2024/04/03 10:42:54;;;;;;;2.38;0.95;;;13.10;99.90;;;;;;5008939;28;20548;-71
2024/04/03 10:45:20;;;;;;;8.32;1.00;;;13.20;99.90;;;;;;4999433;28;20050;-71
2024/04/03 10:47:48;;;;;;;7.70;1.05;;;13.30;99.90;;;;;;5006461;28;20137;-71
2024/04/03 10:50:15;;;;;;;6.97;1.42;;;13.40;99.90;;;;;;5001847;28;20065;-70
2024/04/03 10:52:42;;;;;;;4.95;1.40;;;13.40;99.90;;;;;;4987648;28;20046;-70
2024/04/03 10:55:07;;;;;;;9.02;1.77;;;13.40;99.90;;;;;;5005062;28;20069;-70
2024/04/03 10:57:33;;;;;;;3.25;1.00;;;13.30;99.90;;;;;;4993287;28;20109;-69
2024/04/03 10:59:59;;;;;;;8.35;1.60;;;13.30;99.90;;;;;;4987809;28;20046;-70
2024/04/03 11:02:28;;;;;;;5.85;1.42;;;13.20;99.90;;;;;;4970621;28;20339;-70
2024/04/03 11:04:54;;;;;;;5.13;1.15;;;13.20;99.90;;;;;;5006263;28;20058;-70
2024/04/03 11:07:22;;;;;;;9.00;1.80;;;13.00;99.90;;;;;;4989495;28;20053;-71
2024/04/03 11:09:48;;;;;;;7.07;1.88;;;13.00;99.90;;;;;;4992303;28;20049;-70
2024/04/03 11:12:14;;;;;;;8.02;2.13;;;12.90;99.90;;;;;;5001479;28;20629;-70
2024/04/03 11:14:40;;;;;;;12.02;1.77;;;13.00;99.90;;;;;;5007023;28;20132;-70
2024/04/03 11:17:07;;;;;;;6.82;1.85;;;13.20;99.90;;;;;;4996850;28;20137;-70
2024/04/03 11:19:39;;;;;;;5.20;1.80;;;13.30;99.90;;;;;;5007348;28;20046;-70
2024/04/03 11:22:05;;;;;;;4.90;1.45;;;13.60;99.90;;;;;;4998719;28;20046;-70
2024/04/03 11:24:31;;;;;;;7.25;1.30;;;13.60;99.90;;;;;;4999362;28;20137;-70
2024/04/03 11:26:56;;;;;;;5.78;1.63;;;13.80;99.90;;;;;;5001415;28;20062;-70
2024/04/03 11:29:30;;;;;;;6.60;1.25;;;14.00;99.90;;;;;;5013705;28;20420;-70
2024/04/03 11:31:57;;;;;;;8.75;1.33;;;14.20;99.90;;;;;;5022578;28;20056;-70
2024/04/03 11:34:24;;;;;;;4.15;1.20;;;14.40;99.90;;;;;;5021973;28;20045;-69
2024/04/03 11:36:50;;;;;;;4.00;1.30;;;14.30;99.90;;;;;;5011333;28;20057;-70
2024/04/03 11:39:19;;;;;;;5.35;1.17;;;14.30;99.90;;;;;;5012369;28;20061;-70
2024/04/03 11:41:45;;;;;;;7.57;1.35;;;14.40;99.90;;;;;;5023613;28;20504;-70
2024/04/03 11:44:13;;;;;;;3.72;1.08;;;14.30;99.90;;;;;;5017264;28;20053;-70
2024/04/03 11:46:38;;;;;;;5.15;1.20;;;14.10;99.90;;;;;;5026090;28;20038;-70
2024/04/03 11:49:04;;;;;;;6.85;1.00;;;13.70;99.90;;;;;;5026688;28;20057;-71
2024/04/03 11:51:31;;;;;;;5.05;1.13;;;13.50;99.90;;;;;;5025907;28;20053;-70
2024/04/03 11:53:57;;;;;;;1.90;0.80;;;13.10;99.90;;;;;;5023328;28;20042;-72
2024/04/03 11:56:23;;;;;;;4.80;0.95;;;12.90;99.90;;;;;;5008794;28;20058;-71
2024/04/03 11:58:50;;;;;;;5.38;0.68;;;12.90;99.90;;;;;;5018757;28;20076;-70
2024/04/03 12:01:16;;;;;;;5.88;0.80;;;12.80;99.90;;;;;;5022195;28;20053;-70
2024/04/03 12:03:42;;;;;;;1.50;0.52;;;12.80;99.90;;;;;;5006531;28;20065;-70
2024/04/03 12:06:09;;;;;;;5.40;0.90;;;12.80;99.90;;;;;;5022803;28;20417;-71
2024/04/03 12:08:36;;;;;;;2.00;0.60;;;12.70;99.90;;;;;;5024943;28;20111;-71
2024/04/03 12:11:04;;;;;;;1.52;0.55;;;12.70;99.90;;;;;;5010985;28;20080;-69
2024/04/03 12:13:30;;;;;;;2.40;0.60;;;12.60;99.90;;;;;;5024128;28;20500;-69
2024/04/03 12:15:56;;;;;;;2.67;0.60;;;12.60;99.90;;;;;;5027603;28;20091;-70
2024/04/03 12:18:25;;;;;;;3.50;0.45;;;12.70;99.90;;;;;;5022266;28;20066;-70
2024/04/03 12:20:54;;;;;;;2.53;0.40;;;12.80;99.90;;;;;;5015042;28;20049;-70
2024/04/03 12:23:20;;;;;;;1.33;0.70;;;13.00;99.90;;;;;;5025126;28;20119;-70
2024/04/03 12:25:46;;;;;;;0.45;0.40;;;13.10;99.90;;;;;;5024873;28;20100;-70
2024/04/03 12:28:12;;;;;;;2.38;0.35;;;13.10;99.90;;;;;;5022959;28;20459;-69
2024/04/03 12:30:38;;;;;;;1.70;0.35;;;13.10;99.90;;;;;;5007003;28;20108;-69
2024/04/03 12:33:06;;;;;;;0.98;0.40;;;13.10;99.90;;;;;;5008592;28;20061;-70
2024/04/03 12:35:32;;;;;;;1.40;0.50;;;13.00;99.90;;;;;;5010517;28;20057;-71
2024/04/03 12:37:58;;;;;;;0.80;0.30;;;13.00;99.90;;;;;;5009202;28;20123;-70
2024/04/03 12:40:24;;;;;;;1.33;0.40;;;12.90;99.90;;;;;;5014707;28;20133;-71
2024/04/03 12:42:50;;;;;;;0.85;0.30;;;12.80;99.90;;;;;;5027871;28;20053;-70
2024/04/03 12:45:17;;;;;;;0.43;0.43;;;12.80;99.90;;;;;;5016844;28;20087;-70